createdAt,value
2023-11-09T00:01:41.010Z,100.00
2023-11-09T00:04:09.040Z,100.00
2023-11-09T00:06:36.573Z,100.00
2023-11-09T00:09:05.143Z,100.00
2023-11-09T00:11:32.560Z,100.00
2023-11-09T00:14:00.661Z,100.00
2023-11-09T00:16:27.934Z,100.00
2023-11-09T00:18:57.258Z,100.00
2023-11-09T00:21:24.608Z,100.00
2023-11-09T00:23:52.207Z,100.00
2023-11-09T00:26:19.459Z,100.00
2023-11-09T00:28:52.170Z,100.00
2023-11-09T00:31:23.803Z,100.00
2023-11-09T00:33:51.410Z,100.00
2023-11-09T00:36:19.569Z,100.00
2023-11-09T00:38:50.851Z,100.00
2023-11-09T00:41:18.217Z,100.00
2023-11-09T00:43:46.107Z,100.00
2023-11-09T00:46:13.409Z,100.00
2023-11-09T00:48:41.115Z,100.00
2023-11-09T00:51:08.330Z,100.00
2023-11-09T00:53:36.840Z,100.00
2023-11-09T00:56:06.747Z,100.00
2023-11-09T00:58:34.429Z,100.00
2023-11-09T01:01:03.654Z,100.00
2023-11-09T01:03:31.858Z,100.00
2023-11-09T01:06:01.760Z,100.00
2023-11-09T01:08:29.726Z,100.00
2023-11-09T01:10:57.532Z,100.00
2023-11-09T01:13:25.044Z,100.00
2023-11-09T01:15:52.494Z,100.00
2023-11-09T01:18:20.269Z,100.00
2023-11-09T01:20:49.018Z,100.00
2023-11-09T01:23:16.838Z,100.00
2023-11-09T01:25:44.922Z,100.00
2023-11-09T01:28:12.703Z,100.00
2023-11-09T01:30:39.914Z,100.00
2023-11-09T01:33:07.551Z,100.00
2023-11-09T01:35:34.787Z,100.00
2023-11-09T01:38:02.790Z,100.00
2023-11-09T01:40:30.055Z,100.00
2023-11-09T01:42:57.817Z,100.00
2023-11-09T01:45:25.117Z,100.00
2023-11-09T01:47:54.609Z,100.00
2023-11-09T01:50:22.547Z,100.00
2023-11-09T01:52:49.976Z,100.00
2023-11-09T01:55:17.623Z,100.00
2023-11-09T01:57:45.158Z,100.00
2023-11-09T02:00:15.791Z,100.00
2023-11-09T02:02:43.331Z,100.00
2023-11-09T02:05:11.766Z,100.00
2023-11-09T02:07:39.087Z,100.00
2023-11-09T02:10:09.477Z,100.00
2023-11-09T02:12:36.746Z,100.00
2023-11-09T02:15:04.733Z,100.00
2023-11-09T02:17:32.657Z,100.00
2023-11-09T02:20:00.269Z,100.00
2023-11-09T02:22:28.342Z,100.00
2023-11-09T02:24:56.806Z,100.00
2023-11-09T02:27:24.123Z,100.00
2023-11-09T02:29:51.977Z,100.00
2023-11-09T02:32:19.694Z,100.00
2023-11-09T02:34:49.620Z,100.00
2023-11-09T02:37:17.753Z,100.00
2023-11-09T02:39:45.246Z,100.00
2023-11-09T02:42:12.543Z,100.00
2023-11-09T02:44:40.700Z,100.00
2023-11-09T02:47:07.907Z,100.00
2023-11-09T02:49:35.519Z,100.00
2023-11-09T02:52:02.828Z,100.00
2023-11-09T02:54:30.292Z,100.00
2023-11-09T02:56:57.515Z,100.00
2023-11-09T02:59:25.448Z,100.00
2023-11-09T03:01:52.692Z,100.00
2023-11-09T03:04:20.554Z,100.00
2023-11-09T03:06:47.829Z,100.00
2023-11-09T03:09:18.231Z,100.00
2023-11-09T03:11:46.358Z,100.00
2023-11-09T03:14:14.598Z,100.00
2023-11-09T03:16:42.137Z,100.00
2023-11-09T03:19:09.714Z,100.00
2023-11-09T03:21:37.306Z,100.00
2023-11-09T03:24:05.353Z,100.00
2023-11-09T03:26:33.063Z,100.00
2023-11-09T03:29:00.612Z,100.00
2023-11-09T03:31:27.875Z,100.00
2023-11-09T03:33:57.789Z,100.00
2023-11-09T03:36:25.159Z,100.00
2023-11-09T03:38:53.123Z,100.00
2023-11-09T03:41:21.008Z,100.00
2023-11-09T03:43:48.834Z,100.00
2023-11-09T03:46:16.134Z,100.00
2023-11-09T03:48:43.671Z,100.00
2023-11-09T03:51:10.965Z,100.00
2023-11-09T03:53:38.437Z,100.00
2023-11-09T03:56:05.733Z,100.00
2023-11-09T03:58:34.894Z,100.00
2023-11-09T04:01:04.340Z,100.00
2023-11-09T04:03:32.054Z,100.00
2023-11-09T04:05:59.318Z,100.00
2023-11-09T04:08:26.934Z,100.00
2023-11-09T04:10:54.138Z,100.00
2023-11-09T04:13:21.679Z,100.00
2023-11-09T04:15:48.903Z,100.00
2023-11-09T04:18:16.489Z,100.00
2023-11-09T04:20:44.481Z,100.00
2023-11-09T04:23:12.189Z,100.00
2023-11-09T04:25:39.474Z,100.00
2023-11-09T04:28:07.382Z,100.00
2023-11-09T04:30:34.546Z,100.00
2023-11-09T04:33:02.468Z,100.00
2023-11-09T04:35:31.911Z,100.00
2023-11-09T04:37:59.637Z,100.00
2023-11-09T04:40:27.258Z,100.00
2023-11-09T04:42:58.165Z,100.00
2023-11-09T04:45:27.239Z,100.00
2023-11-09T04:48:02.450Z,100.00
2023-11-09T04:50:32.430Z,100.00
2023-11-09T04:53:31.758Z,100.00
2023-11-09T04:56:08.243Z,100.00
2023-11-09T04:58:49.427Z,100.00
2023-11-09T05:01:36.652Z,100.00
2023-11-09T05:04:25.971Z,100.00
2023-11-09T05:06:56.723Z,100.00
2023-11-09T05:09:28.880Z,100.00
2023-11-09T05:11:57.453Z,100.00
2023-11-09T05:14:25.522Z,100.00
2023-11-09T05:16:53.559Z,100.00
2023-11-09T05:19:21.640Z,100.00
2023-11-09T05:21:55.624Z,100.00
2023-11-09T05:24:27.352Z,100.00
2023-11-09T05:26:54.783Z,100.00
2023-11-09T05:29:22.703Z,100.00
2023-11-09T05:31:51.690Z,100.00
2023-11-09T05:34:19.338Z,100.00
2023-11-09T05:36:56.372Z,100.00
2023-11-09T05:39:38.149Z,100.00
2023-11-09T05:42:10.615Z,100.00
2023-11-09T05:44:39.365Z,100.00
2023-11-09T05:47:07.273Z,100.00
2023-11-09T05:49:34.790Z,100.00
2023-11-09T05:52:02.031Z,100.00
2023-11-09T05:54:29.564Z,100.00
2023-11-09T05:56:57.144Z,100.00
2023-11-09T05:59:24.732Z,100.00
2023-11-09T06:01:52.412Z,100.00
2023-11-09T06:04:20.169Z,100.00
2023-11-09T06:06:47.392Z,100.00
2023-11-09T06:09:16.437Z,100.00
2023-11-09T06:11:44.631Z,100.00
2023-11-09T06:14:14.836Z,100.00
2023-11-09T06:16:43.476Z,100.00
2023-11-09T06:19:12.031Z,100.00
2023-11-09T06:21:39.544Z,100.00
2023-11-09T06:24:08.086Z,100.00
2023-11-09T06:26:36.438Z,100.00
2023-11-09T06:29:04.255Z,100.00
2023-11-09T06:31:31.970Z,100.00
2023-11-09T06:34:01.249Z,100.00
2023-11-09T06:36:28.635Z,100.00
2023-11-09T06:38:56.631Z,100.00
2023-11-09T06:41:28.939Z,100.00
2023-11-09T06:43:57.275Z,100.00
2023-11-09T06:46:28.048Z,100.00
2023-11-09T06:48:55.720Z,100.00
2023-11-09T06:51:23.095Z,100.00
2023-11-09T06:53:52.382Z,100.00
2023-11-09T06:56:19.549Z,100.00
2023-11-09T06:58:47.634Z,100.00
2023-11-09T07:01:15.801Z,100.00
2023-11-09T07:03:43.598Z,96.45
2023-11-09T07:06:10.747Z,94.53
2023-11-09T07:08:38.243Z,79.80
2023-11-09T07:11:09.042Z,78.37
2023-11-09T07:13:38.423Z,75.96
2023-11-09T07:16:08.544Z,76.46
2023-11-09T07:18:37.756Z,76.40
2023-11-09T07:21:12.054Z,72.57
2023-11-09T07:23:40.627Z,72.56
2023-11-09T07:26:08.092Z,72.24
2023-11-09T07:28:35.970Z,69.84
2023-11-09T07:31:03.305Z,73.39
2023-11-09T07:33:31.125Z,73.01
2023-11-09T07:36:00.534Z,72.54
2023-11-09T07:38:36.072Z,70.09
2023-11-09T07:41:05.758Z,66.95
2023-11-09T07:43:36.302Z,65.32
2023-11-09T07:46:04.082Z,62.43
2023-11-09T07:48:33.314Z,60.61
2023-11-09T07:51:02.481Z,57.08
2023-11-09T07:53:30.199Z,60.36
2023-11-09T07:56:02.598Z,60.88
2023-11-09T07:58:32.684Z,61.75
2023-11-09T08:01:02.647Z,60.50
2023-11-09T08:03:33.096Z,58.51
2023-11-09T08:06:06.902Z,56.46
2023-11-09T08:08:36.741Z,57.52
2023-11-09T08:11:04.756Z,57.53
2023-11-09T08:13:32.919Z,57.62
2023-11-09T08:16:00.889Z,57.22
2023-11-09T08:18:29.582Z,57.19
2023-11-09T08:20:58.607Z,57.77
2023-11-09T08:23:26.419Z,56.34
2023-11-09T08:25:54.861Z,60.63
2023-11-09T08:28:22.389Z,59.85
2023-11-09T08:30:55.726Z,60.84
2023-11-09T08:33:26.698Z,60.90
2023-11-09T08:35:55.702Z,60.31
2023-11-09T08:38:24.860Z,59.41
2023-11-09T08:40:52.991Z,63.07
2023-11-09T08:43:20.885Z,61.46
2023-11-09T08:45:48.205Z,62.42
2023-11-09T08:48:17.077Z,62.18
2023-11-09T08:50:47.112Z,61.19
2023-11-09T08:53:17.628Z,63.63
2023-11-09T08:55:45.841Z,64.40
2023-11-09T08:58:18.025Z,65.43
2023-11-09T09:00:46.672Z,66.93
2023-11-09T09:03:14.855Z,63.22
2023-11-09T09:05:42.886Z,64.48
2023-11-09T09:08:10.484Z,65.47
2023-11-09T09:10:39.681Z,65.25
2023-11-09T09:13:08.985Z,67.56
2023-11-09T09:15:36.634Z,68.28
2023-11-09T09:18:04.415Z,68.76
2023-11-09T09:20:32.065Z,70.34
2023-11-09T09:23:01.795Z,70.51
2023-11-09T09:25:31.850Z,68.20
2023-11-09T09:28:00.496Z,66.39
2023-11-09T09:30:28.317Z,65.85
2023-11-09T09:32:57.202Z,63.94
2023-11-09T09:35:32.795Z,65.60
2023-11-09T09:38:06.768Z,64.44
2023-11-09T09:40:47.152Z,62.47
2023-11-09T09:43:21.172Z,59.73
2023-11-09T09:45:59.073Z,60.96
2023-11-09T09:48:29.065Z,60.71
2023-11-09T09:50:59.910Z,60.60
2023-11-09T09:53:28.555Z,61.21
2023-11-09T09:55:57.815Z,62.42
2023-11-09T09:58:25.497Z,61.54
2023-11-09T10:00:56.651Z,61.75
2023-11-09T10:03:27.026Z,60.64
2023-11-09T10:05:54.482Z,60.74
2023-11-09T10:08:25.292Z,60.05
2023-11-09T10:10:55.414Z,59.30
2023-11-09T10:13:26.642Z,58.33
2023-11-09T10:15:59.143Z,58.78
2023-11-09T10:18:31.232Z,56.33
2023-11-09T10:21:00.725Z,57.59
2023-11-09T10:23:28.711Z,59.00
2023-11-09T10:26:01.179Z,58.34
2023-11-09T10:28:34.055Z,59.48
2023-11-09T10:31:01.872Z,57.66
2023-11-09T10:33:31.873Z,61.42
2023-11-09T10:36:00.057Z,61.96
2023-11-09T10:38:31.721Z,61.93
2023-11-09T10:41:15.345Z,61.32
2023-11-09T10:43:52.015Z,63.42
2023-11-09T10:46:21.135Z,64.44
2023-11-09T10:48:51.863Z,64.03
2023-11-09T10:51:36.424Z,66.90
2023-11-09T10:54:29.843Z,63.72
2023-11-09T11:03:59.918Z,61.69
2023-11-09T11:07:00.301Z,62.50
2023-11-09T11:09:42.182Z,61.54
2023-11-09T11:12:25.700Z,62.78
2023-11-09T11:15:21.891Z,62.43
2023-11-09T11:18:27.986Z,61.82
2023-11-09T11:21:35.360Z,60.14
2023-11-09T11:25:12.275Z,61.82
2023-11-09T11:28:04.943Z,60.28
2023-11-09T11:30:42.870Z,62.84
2023-11-09T11:33:18.622Z,60.33
2023-11-09T11:35:58.077Z,60.03
2023-11-09T11:38:34.272Z,61.37
2023-11-09T11:41:17.855Z,60.72
2023-11-09T11:43:52.133Z,59.28
2023-11-09T11:46:28.005Z,60.70
2023-11-09T11:48:58.667Z,62.15
2023-11-09T11:51:28.747Z,58.74
2023-11-09T11:54:09.636Z,58.51
2023-11-09T11:56:39.690Z,59.98
2023-11-09T11:59:10.868Z,62.07
2023-11-09T12:01:41.879Z,61.05
2023-11-09T12:04:15.691Z,60.52
2023-11-09T12:06:45.839Z,58.84
2023-11-09T12:09:16.739Z,60.04
2023-11-09T12:11:49.317Z,59.59
2023-11-09T12:14:21.310Z,59.44
2023-11-09T12:16:50.223Z,60.10
2023-11-09T12:19:19.715Z,60.01
2023-11-09T12:21:48.318Z,60.29
2023-11-09T12:24:24.528Z,61.02
2023-11-09T12:27:10.275Z,60.81
2023-11-09T12:29:39.427Z,59.40
2023-11-09T12:32:08.263Z,58.64
2023-11-09T12:34:41.218Z,59.52
2023-11-09T12:37:15.037Z,58.76
2023-11-09T12:39:44.177Z,55.32
2023-11-09T12:42:13.486Z,55.76
2023-11-09T12:44:48.030Z,56.58
2023-11-09T12:47:17.372Z,57.61
2023-11-09T12:49:51.037Z,56.74
2023-11-09T12:52:29.867Z,57.69
2023-11-09T12:54:58.521Z,58.93
2023-11-09T12:57:26.637Z,56.92
2023-11-09T12:59:57.417Z,57.57
2023-11-09T13:02:43.938Z,57.33
2023-11-09T13:05:14.750Z,56.57
2023-11-09T13:08:19.986Z,60.52
2023-11-09T13:11:46.521Z,58.44
2023-11-09T13:15:17.681Z,58.40
2023-11-09T13:24:46.647Z,58.78
2023-11-09T13:28:04.227Z,61.32
2023-11-09T13:31:31.339Z,60.72
2023-11-09T13:34:29.105Z,60.26
2023-11-09T13:37:02.362Z,59.76
2023-11-09T13:40:33.080Z,62.82
2023-11-09T13:43:44.190Z,60.60
2023-11-09T13:46:29.621Z,61.15
2023-11-09T13:49:29.403Z,62.27
2023-11-09T13:52:26.446Z,61.74
2023-11-09T13:55:05.441Z,61.79
2023-11-09T13:57:34.289Z,60.10
2023-11-09T14:00:59.246Z,57.98
2023-11-09T14:03:41.959Z,60.02
2023-11-09T14:06:41.675Z,60.65
2023-11-09T14:09:54.078Z,61.90
2023-11-09T14:12:53.891Z,62.72
2023-11-09T14:15:51.412Z,62.73
2023-11-09T14:21:25.296Z,63.82
2023-11-09T14:23:52.794Z,64.69
2023-11-09T14:26:28.634Z,66.58
2023-11-09T14:29:06.612Z,65.96
2023-11-09T14:31:38.249Z,65.07
2023-11-09T14:34:13.629Z,67.33
2023-11-09T14:36:51.988Z,68.16
2023-11-09T14:39:39.632Z,69.84
2023-11-09T14:42:09.592Z,70.14
2023-11-09T14:45:57.517Z,70.60
2023-11-09T14:48:33.461Z,71.32
2023-11-09T14:51:25.980Z,72.52
2023-11-09T14:54:04.170Z,77.92
2023-11-09T14:56:39.785Z,78.13
2023-11-09T14:59:21.670Z,81.55
2023-11-09T15:02:22.457Z,87.79
2023-11-09T15:04:56.553Z,84.70
2023-11-09T15:08:01.986Z,97.71
2023-11-09T15:10:38.852Z,87.34
2023-11-09T15:13:57.269Z,89.71
2023-11-09T15:16:27.009Z,90.33
2023-11-09T15:18:58.425Z,88.50
2023-11-09T15:21:28.755Z,89.25
2023-11-09T15:24:08.109Z,94.90
2023-11-09T15:26:44.278Z,91.76
2023-11-09T15:29:13.858Z,94.62
2023-11-09T15:32:21.209Z,98.73
2023-11-09T15:34:57.155Z,100.00
2023-11-09T15:38:12.000Z,100.00
2023-11-09T15:41:16.973Z,100.00
2023-11-09T15:43:56.374Z,100.00
2023-11-09T15:46:27.514Z,100.00
2023-11-09T15:48:56.609Z,100.00
2023-11-09T15:51:32.589Z,100.00
2023-11-09T15:54:01.139Z,100.00
2023-11-09T15:56:30.861Z,100.00
2023-11-09T15:58:58.550Z,100.00
2023-11-09T16:01:28.104Z,100.00
2023-11-09T16:03:58.035Z,100.00
2023-11-09T16:06:27.628Z,100.00
2023-11-09T16:08:56.915Z,100.00
2023-11-09T16:11:24.819Z,100.00
2023-11-09T16:13:52.961Z,100.00
2023-11-09T16:16:24.359Z,100.00
2023-11-09T16:18:56.170Z,100.00
2023-11-09T16:21:28.150Z,100.00
2023-11-09T16:24:00.960Z,100.00
2023-11-09T16:26:38.198Z,100.00
2023-11-09T16:29:14.680Z,100.00
2023-11-09T16:31:48.081Z,100.00
2023-11-09T16:34:19.080Z,100.00
2023-11-09T16:36:46.805Z,100.00
2023-11-09T16:39:18.163Z,100.00
2023-11-09T16:41:49.464Z,100.00
2023-11-09T16:44:16.954Z,100.00
2023-11-09T16:46:44.616Z,100.00
2023-11-09T16:49:12.388Z,100.00
2023-11-09T16:51:40.651Z,100.00
2023-11-09T16:54:07.897Z,100.00
2023-11-09T16:56:35.806Z,100.00
2023-11-09T16:59:03.753Z,100.00
2023-11-09T17:01:31.702Z,100.00
2023-11-09T17:04:07.942Z,100.00
2023-11-09T17:06:38.038Z,100.00
2023-11-09T17:09:08.020Z,100.00
2023-11-09T17:11:43.476Z,100.00
2023-11-09T17:14:10.878Z,100.00
2023-11-09T17:16:46.880Z,100.00
2023-11-09T17:19:15.960Z,100.00
2023-11-09T17:21:45.281Z,100.00
2023-11-09T17:24:13.617Z,100.00
2023-11-09T17:26:41.126Z,100.00
2023-11-09T17:29:08.341Z,100.00
2023-11-09T17:31:37.279Z,100.00
2023-11-09T17:34:04.808Z,100.00
2023-11-09T17:36:32.888Z,100.00
2023-11-09T17:39:00.856Z,99.92
2023-11-09T17:41:33.140Z,100.00
2023-11-09T17:44:04.854Z,98.88
2023-11-09T17:46:35.193Z,100.00
2023-11-09T17:49:03.870Z,100.00
2023-11-09T17:51:36.835Z,98.83
2023-11-09T17:54:06.200Z,100.00
2023-11-09T17:56:42.048Z,100.00
2023-11-09T17:59:12.251Z,100.00
2023-11-09T18:01:40.834Z,100.00
2023-11-09T18:04:11.362Z,100.00
2023-11-09T18:06:44.240Z,100.00
2023-11-09T18:09:12.893Z,100.00
2023-11-09T18:11:44.123Z,100.00
2023-11-09T18:14:16.877Z,100.00
2023-11-09T18:16:50.681Z,100.00
2023-11-09T18:19:18.775Z,100.00
2023-11-09T18:21:50.536Z,100.00
2023-11-09T18:24:23.548Z,100.00
2023-11-09T18:26:52.281Z,100.00
2023-11-09T18:29:20.459Z,100.00
2023-11-09T18:31:49.929Z,100.00
2023-11-09T18:34:17.817Z,100.00
2023-11-09T18:36:46.026Z,100.00
2023-11-09T18:39:13.732Z,100.00
2023-11-09T18:41:42.269Z,100.00
2023-11-09T18:44:09.784Z,100.00
2023-11-09T18:46:37.438Z,100.00
2023-11-09T18:51:40.319Z,100.00
2023-11-09T18:54:07.831Z,100.00
2023-11-09T18:56:36.456Z,100.00
2023-11-09T18:59:04.364Z,100.00
2023-11-09T19:01:31.912Z,100.00
2023-11-09T19:06:37.187Z,100.00
2023-11-09T19:09:08.036Z,100.00
2023-11-09T19:11:43.514Z,100.00
2023-11-09T19:14:18.054Z,100.00
2023-11-09T19:17:13.068Z,100.00
2023-11-09T19:19:40.375Z,100.00
2023-11-09T19:24:39.424Z,100.00
2023-11-09T19:27:07.820Z,100.00
2023-11-09T19:29:35.119Z,100.00
2023-11-09T19:32:05.832Z,100.00
2023-11-09T19:34:34.498Z,100.00
2023-11-09T19:37:03.735Z,100.00
2023-11-09T19:40:00.682Z,100.00
2023-11-09T19:42:36.752Z,100.00
2023-11-09T19:45:11.365Z,100.00
2023-11-09T19:47:51.971Z,100.00
2023-11-09T19:50:26.090Z,100.00
2023-11-09T19:53:20.906Z,100.00
2023-11-09T19:55:49.253Z,100.00
2023-11-09T19:58:16.880Z,100.00
2023-11-09T20:00:45.577Z,100.00
2023-11-09T20:03:13.567Z,100.00
2023-11-09T20:05:42.387Z,100.00
2023-11-09T20:08:11.301Z,100.00
2023-11-09T20:10:44.999Z,100.00
2023-11-09T20:13:15.448Z,100.00
2023-11-09T20:15:45.829Z,100.00
2023-11-09T20:18:15.727Z,100.00
2023-11-09T20:20:44.521Z,100.00
2023-11-09T20:23:40.206Z,100.00
2023-11-09T20:26:10.261Z,100.00
2023-11-09T20:28:42.534Z,100.00
2023-11-09T20:31:10.688Z,100.00
2023-11-09T20:33:47.673Z,100.00
2023-11-09T20:36:48.599Z,100.00
2023-11-09T20:39:24.929Z,100.00
2023-11-09T20:42:17.779Z,100.00
2023-11-09T20:44:45.630Z,100.00
2023-11-09T20:47:14.266Z,100.00
2023-11-09T20:49:48.341Z,100.00
2023-11-09T20:52:53.148Z,100.00
2023-11-09T20:55:34.746Z,100.00
2023-11-09T20:58:11.686Z,100.00
2023-11-09T21:01:06.829Z,100.00
2023-11-09T21:03:37.023Z,100.00
2023-11-09T21:06:30.009Z,100.00
2023-11-09T21:09:10.212Z,100.00
2023-11-09T21:11:43.968Z,100.00
2023-11-09T21:14:20.048Z,100.00
2023-11-09T21:16:53.459Z,100.00
2023-11-09T21:19:21.618Z,100.00
2023-11-09T21:22:14.425Z,100.00
2023-11-09T21:25:08.959Z,100.00
2023-11-09T21:27:54.361Z,100.00
2023-11-09T21:30:34.248Z,100.00
2023-11-09T21:33:28.173Z,100.00
2023-11-09T21:35:59.987Z,100.00
2023-11-09T21:38:29.059Z,100.00
2023-11-09T21:41:08.981Z,100.00
2023-11-09T21:44:07.147Z,100.00
2023-11-09T21:47:02.469Z,100.00
2023-11-09T21:49:31.469Z,100.00
2023-11-09T21:52:01.897Z,100.00
2023-11-09T21:54:30.112Z,100.00
2023-11-09T21:57:22.185Z,100.00
2023-11-09T22:00:22.899Z,100.00
2023-11-09T22:02:51.430Z,100.00
2023-11-09T22:05:22.634Z,100.00
2023-11-09T22:08:04.209Z,100.00
2023-11-09T22:10:32.078Z,100.00
2023-11-09T22:12:59.526Z,100.00
2023-11-09T22:15:30.600Z,100.00
2023-11-09T22:17:58.712Z,100.00
2023-11-09T22:20:28.577Z,100.00
2023-11-09T22:22:56.033Z,100.00
2023-11-09T22:25:23.573Z,100.00
2023-11-09T22:27:50.869Z,100.00
2023-11-09T22:30:22.468Z,100.00
2023-11-09T22:32:52.734Z,100.00
2023-11-09T22:35:22.791Z,100.00
2023-11-09T22:37:50.653Z,100.00
2023-11-09T22:40:26.347Z,100.00
2023-11-09T22:42:56.676Z,100.00
2023-11-09T22:45:27.719Z,100.00
2023-11-09T22:47:55.278Z,100.00
2023-11-09T22:50:28.170Z,100.00
2023-11-09T22:52:56.557Z,100.00
2023-11-09T22:55:30.992Z,100.00
2023-11-09T22:57:59.746Z,100.00
2023-11-09T23:00:37.204Z,100.00
2023-11-09T23:03:06.159Z,100.00
2023-11-09T23:05:33.908Z,100.00
2023-11-09T23:08:01.170Z,99.93
2023-11-09T23:10:29.736Z,99.40
2023-11-09T23:12:57.071Z,98.60
2023-11-09T23:15:24.678Z,97.24
2023-11-09T23:17:52.123Z,95.97
2023-11-09T23:20:19.686Z,95.38
2023-11-09T23:22:54.116Z,94.67
2023-11-09T23:25:26.253Z,94.47
2023-11-09T23:27:57.490Z,95.33
2023-11-09T23:30:29.054Z,95.27
2023-11-09T23:32:56.409Z,96.80
2023-11-09T23:35:23.969Z,96.25
2023-11-09T23:37:51.239Z,96.90
2023-11-09T23:40:19.057Z,97.07
2023-11-09T23:42:46.671Z,96.69
2023-11-09T23:45:14.741Z,97.45
2023-11-09T23:47:42.657Z,97.57
2023-11-09T23:50:13.353Z,97.17
2023-11-09T23:53:05.968Z,96.03
2023-11-09T23:55:34.721Z,95.85
2023-11-09T23:58:02.139Z,95.95
